createdAt,value
2018-02-07T00:01:07.545Z,25.20
2018-02-07T00:03:39.221Z,25.00
2018-02-07T00:06:10.642Z,25.30
2018-02-07T00:08:41.499Z,25.20
2018-02-07T00:11:13.238Z,25.40
2018-02-07T00:13:44.794Z,25.30
2018-02-07T00:16:15.667Z,25.40
2018-02-07T00:18:46.468Z,25.30
2018-02-07T00:21:17.441Z,25.30
2018-02-07T00:23:48.350Z,25.70
2018-02-07T00:26:19.382Z,25.60
2018-02-07T00:28:50.173Z,25.70
2018-02-07T00:31:21.055Z,26.10
2018-02-07T00:33:51.967Z,26.00
2018-02-07T00:36:23.764Z,25.90
2018-02-07T00:38:54.630Z,25.90
2018-02-07T00:41:25.530Z,26.10
2018-02-07T00:43:56.347Z,26.30
2018-02-07T00:46:27.365Z,26.40
2018-02-07T00:48:58.239Z,27.90
2018-02-07T00:51:29.129Z,28.50
2018-02-07T00:54:00.141Z,28.60
2018-02-07T00:56:32.528Z,28.60
2018-02-07T00:59:03.285Z,28.60
2018-02-07T01:01:35.065Z,29.50
2018-02-07T01:04:08.341Z,29.50
2018-02-07T01:06:39.189Z,29.20
2018-02-07T01:09:10.098Z,29.70
2018-02-07T01:11:42.038Z,29.50
2018-02-07T01:14:14.613Z,29.40
2018-02-07T01:16:46.059Z,28.40
2018-02-07T01:19:17.834Z,27.60
2018-02-07T01:21:49.218Z,27.80
2018-02-07T01:24:20.061Z,27.80
2018-02-07T01:26:51.479Z,28.00
2018-02-07T01:29:22.298Z,27.80
2018-02-07T01:31:54.873Z,27.60
2018-02-07T01:34:26.934Z,27.40
2018-02-07T01:36:58.801Z,27.60
2018-02-07T01:39:30.487Z,27.70
2018-02-07T01:42:02.109Z,27.70
2018-02-07T01:44:33.856Z,28.70
2018-02-07T01:47:05.494Z,29.40
2018-02-07T01:49:36.073Z,29.40
2018-02-07T01:52:06.706Z,29.50
2018-02-07T01:54:37.390Z,29.60
2018-02-07T01:57:08.246Z,29.10
2018-02-07T01:59:40.278Z,28.70
2018-02-07T02:02:10.950Z,28.70
2018-02-07T02:04:42.609Z,28.50
2018-02-07T02:07:14.561Z,29.10
2018-02-07T02:09:46.237Z,29.10
2018-02-07T02:12:17.009Z,29.00
2018-02-07T02:14:47.724Z,28.90
2018-02-07T02:17:18.450Z,29.00
2018-02-07T02:19:49.030Z,28.90
2018-02-07T02:22:20.535Z,29.00
2018-02-07T02:24:51.430Z,28.60
2018-02-07T02:27:23.111Z,30.10
2018-02-07T02:29:55.546Z,30.20
2018-02-07T02:32:26.254Z,30.20
2018-02-07T02:34:57.141Z,29.60
2018-02-07T02:37:28.829Z,29.80
2018-02-07T02:39:59.834Z,29.80
2018-02-07T02:42:31.387Z,29.20
2018-02-07T02:45:04.241Z,29.80
2018-02-07T02:47:35.154Z,29.80
2018-02-07T02:50:07.002Z,29.50
2018-02-07T02:52:38.270Z,29.80
2018-02-07T02:55:09.798Z,29.50
2018-02-07T02:57:40.707Z,29.80
2018-02-07T03:00:12.365Z,30.30
2018-02-07T03:02:43.929Z,30.40
2018-02-07T03:05:14.592Z,30.40
2018-02-07T03:07:45.558Z,30.70
2018-02-07T03:10:16.963Z,30.50
2018-02-07T03:12:48.726Z,30.00
2018-02-07T03:15:19.517Z,30.60
2018-02-07T03:17:51.945Z,31.00
2018-02-07T03:20:23.123Z,31.00
2018-02-07T03:22:54.421Z,30.00
2018-02-07T03:25:25.216Z,29.90
2018-02-07T03:27:56.026Z,30.00
2018-02-07T03:30:26.882Z,29.60
2018-02-07T03:32:59.271Z,29.60
2018-02-07T03:35:30.139Z,29.70
2018-02-07T03:38:01.037Z,29.70
2018-02-07T03:40:32.581Z,30.20
2018-02-07T03:43:08.893Z,30.60
2018-02-07T03:45:40.229Z,30.80
2018-02-07T03:48:14.467Z,30.40
2018-02-07T03:50:46.268Z,30.40
2018-02-07T03:53:17.098Z,30.30
2018-02-07T03:55:48.127Z,30.00
2018-02-07T03:58:19.630Z,30.10
2018-02-07T04:00:51.801Z,29.80
2018-02-07T04:03:22.562Z,29.80
2018-02-07T04:05:53.367Z,29.80
2018-02-07T04:08:25.042Z,30.00
2018-02-07T04:10:56.585Z,30.00
2018-02-07T04:13:27.550Z,29.90
2018-02-07T04:15:58.297Z,30.10
2018-02-07T04:18:29.386Z,30.30
2018-02-07T04:21:00.815Z,30.30
2018-02-07T04:23:33.233Z,30.30
2018-02-07T04:26:03.789Z,30.50
2018-02-07T04:28:34.718Z,30.40
2018-02-07T04:31:05.644Z,30.60
2018-02-07T04:33:36.529Z,30.70
2018-02-07T04:36:07.418Z,30.70
2018-02-07T04:38:38.030Z,30.60
2018-02-07T04:41:09.666Z,30.40
2018-02-07T04:43:41.342Z,30.90
2018-02-07T04:46:13.270Z,31.10
2018-02-07T04:48:44.257Z,31.10
2018-02-07T04:51:15.102Z,30.80
2018-02-07T04:53:47.729Z,30.80
2018-02-07T04:56:18.673Z,30.50
2018-02-07T04:58:49.497Z,30.70
2018-02-07T05:01:20.241Z,30.60
2018-02-07T05:03:50.966Z,30.30
2018-02-07T05:06:22.532Z,30.70
2018-02-07T05:08:53.339Z,30.70
2018-02-07T05:11:24.009Z,31.20
2018-02-07T05:13:55.555Z,31.70
2018-02-07T05:16:27.150Z,31.80
2018-02-07T05:18:57.958Z,31.80
2018-02-07T05:21:29.475Z,32.10
2018-02-07T05:24:00.248Z,32.00
2018-02-07T05:26:31.934Z,31.30
2018-02-07T05:29:02.761Z,31.30
2018-02-07T05:31:34.573Z,31.20
2018-02-07T05:34:10.628Z,31.40
2018-02-07T05:36:41.370Z,31.50
2018-02-07T05:39:12.654Z,31.40
2018-02-07T05:41:43.438Z,31.40
2018-02-07T05:44:14.907Z,31.00
2018-02-07T05:46:45.857Z,31.40
2018-02-07T05:49:18.103Z,31.20
2018-02-07T05:51:48.662Z,31.20
2018-02-07T05:54:20.270Z,31.10
2018-02-07T05:56:50.971Z,31.10
2018-02-07T05:59:21.877Z,31.60
2018-02-07T06:01:53.836Z,31.50
2018-02-07T06:04:25.877Z,31.70
2018-02-07T06:06:56.600Z,31.70
2018-02-07T06:09:27.274Z,31.90
2018-02-07T06:11:59.546Z,32.10
2018-02-07T06:14:32.814Z,32.30
2018-02-07T06:17:03.747Z,32.30
2018-02-07T06:19:34.489Z,32.20
2018-02-07T06:22:05.306Z,31.70
2018-02-07T06:24:35.967Z,32.00
2018-02-07T06:27:07.628Z,31.60
2018-02-07T06:29:39.412Z,31.60
2018-02-07T06:32:10.274Z,31.60
2018-02-07T06:34:41.165Z,31.70
2018-02-07T06:37:13.330Z,31.70
2018-02-07T06:39:44.581Z,31.50
2018-02-07T06:42:15.926Z,31.50
2018-02-07T06:44:47.435Z,31.70
2018-02-07T06:47:18.177Z,31.70
2018-02-07T06:49:49.007Z,31.70
2018-02-07T06:52:19.966Z,31.90
2018-02-07T06:54:50.911Z,31.80
2018-02-07T06:57:21.739Z,32.20
2018-02-07T06:59:52.441Z,32.50
2018-02-07T07:02:23.406Z,32.00
2018-02-07T07:04:54.232Z,32.20
2018-02-07T07:07:24.762Z,32.00
2018-02-07T07:09:55.630Z,31.30
2018-02-07T07:12:27.372Z,31.50
2018-02-07T07:14:58.305Z,31.50
2018-02-07T07:17:29.334Z,31.70
2018-02-07T07:20:00.172Z,31.80
2018-02-07T07:22:31.073Z,31.90
2018-02-07T07:25:01.666Z,31.90
2018-02-07T07:27:32.499Z,32.00
2018-02-07T07:30:04.364Z,32.00
2018-02-07T07:32:35.963Z,32.20
2018-02-07T07:35:06.935Z,32.20
2018-02-07T07:37:37.746Z,32.00
2018-02-07T07:40:08.603Z,31.80
2018-02-07T07:42:39.416Z,31.70
2018-02-07T07:45:10.307Z,31.70
2018-02-07T07:47:41.927Z,32.00
2018-02-07T07:50:12.879Z,32.00
2018-02-07T07:52:43.379Z,32.00
2018-02-07T07:55:14.339Z,31.60
2018-02-07T07:57:45.192Z,31.70
2018-02-07T08:00:16.018Z,32.00
2018-02-07T08:02:47.423Z,32.60
2018-02-07T08:05:18.622Z,32.60
2018-02-07T08:07:50.495Z,32.40
2018-02-07T08:10:22.195Z,32.40
2018-02-07T08:12:53.773Z,32.40
2018-02-07T08:15:24.459Z,32.10
2018-02-07T08:17:55.994Z,32.30
2018-02-07T08:20:27.446Z,32.20
2018-02-07T08:22:59.381Z,32.10
2018-02-07T08:25:31.127Z,32.10
2018-02-07T08:28:01.623Z,32.10
2018-02-07T08:30:32.114Z,32.10
2018-02-07T08:33:03.635Z,32.30
2018-02-07T08:35:34.097Z,32.20
2018-02-07T08:38:05.039Z,32.40
2018-02-07T08:40:36.680Z,32.10
2018-02-07T08:43:07.562Z,32.10
2018-02-07T08:45:39.576Z,32.30
2018-02-07T08:48:10.691Z,32.40
2018-02-07T08:50:41.462Z,32.50
2018-02-07T08:53:13.127Z,32.40
2018-02-07T08:55:44.750Z,32.40
2018-02-07T08:58:15.842Z,32.40
2018-02-07T09:00:47.631Z,32.10
2018-02-07T09:03:18.554Z,32.10
2018-02-07T09:05:49.859Z,32.10
2018-02-07T09:08:21.507Z,32.10
2018-02-07T09:10:52.618Z,32.10
2018-02-07T09:13:23.586Z,32.10
2018-02-07T09:15:54.233Z,32.20
2018-02-07T09:18:26.646Z,32.10
2018-02-07T09:20:57.533Z,32.10
2018-02-07T09:23:28.321Z,32.10
2018-02-07T09:25:59.303Z,32.10
2018-02-07T09:28:30.187Z,32.10
2018-02-07T09:31:01.285Z,32.10
2018-02-07T09:33:31.986Z,32.10
2018-02-07T09:36:03.463Z,32.20
2018-02-07T09:38:34.454Z,32.10
2018-02-07T09:41:05.148Z,32.10
2018-02-07T09:43:36.911Z,32.00
2018-02-07T09:46:08.666Z,31.90
2018-02-07T09:48:40.246Z,31.90
2018-02-07T09:51:11.160Z,31.90
2018-02-07T09:53:42.918Z,31.90
2018-02-07T09:56:14.537Z,31.90
2018-02-07T09:58:46.709Z,31.90
2018-02-07T10:01:17.565Z,31.80
2018-02-07T10:03:48.310Z,31.70
2018-02-07T10:06:20.147Z,31.60
2018-02-07T10:08:51.006Z,31.70
2018-02-07T10:11:22.498Z,31.50
2018-02-07T10:13:53.403Z,31.40
2018-02-07T10:16:24.962Z,31.30
2018-02-07T10:18:57.293Z,31.20
2018-02-07T10:21:28.273Z,31.20
2018-02-07T10:23:59.609Z,31.10
2018-02-07T10:26:31.138Z,31.10
2018-02-07T10:29:01.876Z,31.10
2018-02-07T10:31:32.806Z,31.00
2018-02-07T10:34:03.623Z,30.90
2018-02-07T10:36:34.490Z,30.80
2018-02-07T10:39:05.381Z,30.80
2018-02-07T10:41:36.247Z,30.70
2018-02-07T10:44:07.017Z,30.70
2018-02-07T10:46:38.635Z,30.50
2018-02-07T10:49:09.490Z,30.50
2018-02-07T10:51:40.329Z,30.50
2018-02-07T10:54:11.166Z,30.50
2018-02-07T10:56:41.682Z,30.40
2018-02-07T10:59:12.492Z,30.30
2018-02-07T11:01:43.204Z,30.30
2018-02-07T11:04:14.211Z,30.10
2018-02-07T11:06:44.954Z,29.90
2018-02-07T11:09:16.627Z,29.90
2018-02-07T11:11:47.521Z,29.90
2018-02-07T11:14:18.290Z,29.80
2018-02-07T11:16:49.827Z,29.40
2018-02-07T11:19:21.381Z,29.60
2018-02-07T11:21:52.835Z,29.60
2018-02-07T11:24:24.593Z,29.50
2018-02-07T11:26:56.163Z,29.40
2018-02-07T11:29:27.894Z,29.40
2018-02-07T11:31:58.618Z,29.40
2018-02-07T11:34:29.089Z,29.30
2018-02-07T11:36:59.574Z,29.20
2018-02-07T11:39:30.058Z,29.20
2018-02-07T11:42:00.957Z,29.40
2018-02-07T11:44:32.694Z,29.50
2018-02-07T11:47:04.529Z,29.40
2018-02-07T11:49:35.250Z,29.40
2018-02-07T11:52:06.151Z,29.50
2018-02-07T11:54:37.781Z,29.30
2018-02-07T11:57:08.666Z,29.30
2018-02-07T11:59:39.701Z,29.50
2018-02-07T12:02:10.599Z,29.40
2018-02-07T12:04:41.542Z,29.50
2018-02-07T12:07:13.421Z,29.40
2018-02-07T12:09:45.200Z,29.40
2018-02-07T12:12:16.671Z,29.40
2018-02-07T12:14:47.409Z,29.40
2018-02-07T12:17:19.326Z,29.20
2018-02-07T12:19:52.538Z,28.90
2018-02-07T12:22:23.430Z,28.90
2018-02-07T12:24:54.215Z,29.10
2018-02-07T12:27:25.464Z,29.00
2018-02-07T12:29:56.788Z,28.70
2018-02-07T12:32:28.525Z,28.70
2018-02-07T12:35:00.381Z,28.80
2018-02-07T12:37:31.355Z,28.80
2018-02-07T12:40:02.174Z,28.80
2018-02-07T12:42:33.866Z,28.80
2018-02-07T12:45:05.175Z,28.80
2018-02-07T12:47:36.899Z,28.70
2018-02-07T12:50:07.786Z,28.70
2018-02-07T12:52:38.771Z,28.70
2018-02-07T12:55:09.774Z,28.60
2018-02-07T12:57:41.606Z,28.50
2018-02-07T13:00:13.289Z,28.50
2018-02-07T13:02:44.823Z,28.50
2018-02-07T13:05:16.586Z,28.50
2018-02-07T13:07:48.146Z,28.50
2018-02-07T13:10:19.085Z,28.50
2018-02-07T13:12:50.182Z,28.40
2018-02-07T13:15:21.603Z,28.40
2018-02-07T13:17:52.575Z,28.40
2018-02-07T13:20:23.546Z,28.30
2018-02-07T13:22:55.474Z,28.40
2018-02-07T13:25:27.237Z,28.40
2018-02-07T13:27:58.940Z,28.40
2018-02-07T13:30:30.321Z,28.30
2018-02-07T13:33:01.174Z,28.30
2018-02-07T13:35:32.409Z,28.40
2018-02-07T13:38:03.788Z,28.20
2018-02-07T13:40:34.805Z,28.00
2018-02-07T13:43:05.930Z,28.20
2018-02-07T13:45:36.787Z,28.10
2018-02-07T13:48:08.131Z,28.20
2018-02-07T13:50:40.054Z,28.20
2018-02-07T13:53:12.020Z,28.20
2018-02-07T13:55:44.886Z,28.20
2018-02-07T13:58:16.320Z,28.00
2018-02-07T14:00:54.971Z,28.20
2018-02-07T14:03:26.122Z,28.10
2018-02-07T14:05:57.466Z,28.10
2018-02-07T14:08:28.619Z,28.10
2018-02-07T14:10:59.922Z,28.20
2018-02-07T14:13:32.864Z,28.00
2018-02-07T14:16:04.277Z,28.00
2018-02-07T14:18:36.854Z,28.10
2018-02-07T14:21:08.339Z,28.10
2018-02-07T14:23:39.502Z,28.00
2018-02-07T14:26:10.738Z,27.70
2018-02-07T14:28:42.058Z,27.90
2018-02-07T14:31:13.518Z,27.90
2018-02-07T14:33:44.878Z,27.90
2018-02-07T14:36:16.186Z,27.70
2018-02-07T14:38:47.353Z,27.70
2018-02-07T14:41:18.577Z,27.80
2018-02-07T14:43:50.010Z,27.70
2018-02-07T14:46:21.955Z,27.80
2018-02-07T14:48:53.056Z,27.80
2018-02-07T14:51:24.185Z,27.90
2018-02-07T14:53:56.027Z,28.00
2018-02-07T14:56:27.994Z,27.90
2018-02-07T14:58:59.915Z,28.00
2018-02-07T15:01:30.914Z,28.00
2018-02-07T15:04:03.039Z,27.90
2018-02-07T15:06:34.410Z,27.70
2018-02-07T15:09:06.777Z,27.70
2018-02-07T15:11:38.796Z,27.80
2018-02-07T15:14:10.158Z,27.70
2018-02-07T15:16:41.432Z,27.70
2018-02-07T15:19:14.286Z,27.60
2018-02-07T15:21:45.378Z,27.60
2018-02-07T15:24:16.557Z,27.50
2018-02-07T15:26:47.825Z,27.60
2018-02-07T15:29:18.994Z,27.80
2018-02-07T15:31:50.893Z,27.70
2018-02-07T15:34:22.845Z,27.70
2018-02-07T15:36:54.370Z,27.70
2018-02-07T15:39:26.299Z,27.60
2018-02-07T15:41:57.498Z,27.60
2018-02-07T15:44:28.724Z,27.60
2018-02-07T15:47:00.714Z,27.70
2018-02-07T15:49:32.877Z,27.60
2018-02-07T15:52:04.149Z,27.60
2018-02-07T15:54:35.234Z,27.50
2018-02-07T15:57:07.099Z,27.60
2018-02-07T15:59:39.037Z,27.60
2018-02-07T16:02:11.132Z,27.60
2018-02-07T16:04:42.851Z,27.50
2018-02-07T16:07:14.028Z,27.50
2018-02-07T16:09:44.978Z,27.40
2018-02-07T16:12:16.512Z,27.20
2018-02-07T16:14:48.565Z,27.20
2018-02-07T16:17:19.341Z,27.10
2018-02-07T16:19:50.175Z,27.10
2018-02-07T16:22:21.067Z,27.30
2018-02-07T16:24:51.924Z,27.40
2018-02-07T16:27:24.374Z,27.50
2018-02-07T16:29:56.054Z,27.40
2018-02-07T16:32:28.531Z,27.20
2018-02-07T16:35:01.843Z,27.00
2018-02-07T16:37:33.037Z,27.00
2018-02-07T16:40:04.086Z,27.00
2018-02-07T16:42:34.934Z,27.00
2018-02-07T16:45:06.998Z,26.90
2018-02-07T16:47:38.083Z,26.90
2018-02-07T16:50:08.922Z,26.90
2018-02-07T16:52:40.070Z,27.00
2018-02-07T16:55:11.302Z,26.90
2018-02-07T16:57:42.238Z,26.80
2018-02-07T17:00:13.260Z,26.60
2018-02-07T17:02:45.591Z,26.70
2018-02-07T17:05:16.559Z,26.70
2018-02-07T17:07:47.509Z,26.80
2018-02-07T17:10:19.293Z,26.80
2018-02-07T17:12:50.274Z,26.80
2018-02-07T17:15:21.398Z,26.40
2018-02-07T17:17:52.346Z,26.30
2018-02-07T17:20:23.318Z,26.70
2018-02-07T17:22:53.977Z,26.80
2018-02-07T17:25:26.166Z,26.70
2018-02-07T17:27:56.981Z,26.60
2018-02-07T17:30:27.993Z,26.60
2018-02-07T17:32:58.810Z,26.60
2018-02-07T17:35:29.897Z,26.60
2018-02-07T17:38:00.667Z,26.50
2018-02-07T17:40:31.529Z,26.30
2018-02-07T17:43:02.526Z,26.40
2018-02-07T17:45:33.546Z,26.40
2018-02-07T17:48:05.196Z,26.50
2018-02-07T17:50:37.151Z,26.50
2018-02-07T17:53:08.887Z,26.50
2018-02-07T17:55:39.814Z,26.50
2018-02-07T17:58:10.525Z,26.40
2018-02-07T18:00:41.502Z,26.50
2018-02-07T18:03:12.477Z,26.50
2018-02-07T18:05:43.378Z,26.40
2018-02-07T18:08:14.131Z,26.30
2018-02-07T18:10:45.456Z,26.30
2018-02-07T18:13:15.998Z,26.30
2018-02-07T18:15:47.678Z,26.10
2018-02-07T18:18:19.394Z,26.10
2018-02-07T18:20:50.610Z,26.00
2018-02-07T18:23:21.426Z,26.10
2018-02-07T18:25:53.037Z,26.20
2018-02-07T18:28:23.798Z,26.10
2018-02-07T18:30:55.534Z,26.10
2018-02-07T18:33:26.766Z,26.10
2018-02-07T18:35:57.527Z,26.00
2018-02-07T18:38:29.066Z,25.90
2018-02-07T18:41:00.012Z,25.90
2018-02-07T18:43:31.558Z,25.90
2018-02-07T18:46:02.482Z,25.90
2018-02-07T18:48:33.422Z,26.00
2018-02-07T18:51:04.283Z,26.10
2018-02-07T18:53:36.037Z,25.90
2018-02-07T18:56:07.926Z,25.90
2018-02-07T18:58:38.845Z,25.90
2018-02-07T19:01:10.466Z,25.90
2018-02-07T19:03:41.330Z,25.90
2018-02-07T19:06:12.762Z,25.90
2018-02-07T19:08:43.706Z,25.90
2018-02-07T19:11:15.454Z,25.80
2018-02-07T19:13:46.413Z,25.80
2018-02-07T19:16:18.218Z,25.70
2018-02-07T19:18:49.125Z,25.60
2018-02-07T19:21:20.734Z,25.70
2018-02-07T19:23:51.614Z,25.70
2018-02-07T19:26:23.208Z,25.70
2018-02-07T19:28:54.062Z,25.70
2018-02-07T19:31:24.982Z,25.70
2018-02-07T19:33:55.862Z,25.70
2018-02-07T19:36:27.574Z,25.50
2018-02-07T19:38:58.581Z,25.50
2018-02-07T19:41:30.122Z,25.80
2018-02-07T19:44:01.791Z,25.70
2018-02-07T19:46:34.130Z,25.60
2018-02-07T19:49:04.969Z,25.50
2018-02-07T19:51:35.710Z,25.60
2018-02-07T19:54:09.002Z,25.60
2018-02-07T19:56:40.498Z,25.60
2018-02-07T19:59:11.514Z,25.50
2018-02-07T20:01:43.034Z,25.70
2018-02-07T20:04:14.026Z,25.60
2018-02-07T20:06:44.605Z,25.70
2018-02-07T20:09:15.575Z,25.60
2018-02-07T20:11:47.327Z,25.60
2018-02-07T20:14:19.063Z,25.60
2018-02-07T20:16:50.336Z,25.60
2018-02-07T20:19:21.790Z,25.50
2018-02-07T20:21:53.347Z,25.60
2018-02-07T20:24:24.955Z,25.60
2018-02-07T20:26:55.746Z,25.60
2018-02-07T20:29:26.199Z,25.60
2018-02-07T20:31:57.013Z,25.50
2018-02-07T20:34:28.029Z,25.50
2018-02-07T20:36:59.527Z,25.40
2018-02-07T20:39:30.526Z,25.40
2018-02-07T20:42:02.154Z,25.40
2018-02-07T20:44:33.130Z,25.30
2018-02-07T20:47:04.522Z,25.40
2018-02-07T20:49:35.383Z,25.40
2018-02-07T20:52:06.094Z,25.40
2018-02-07T20:54:36.890Z,25.30
2018-02-07T20:57:07.726Z,25.40
2018-02-07T20:59:38.639Z,25.30
2018-02-07T21:02:10.302Z,25.30
2018-02-07T21:04:42.074Z,25.30
2018-02-07T21:07:13.817Z,25.30
2018-02-07T21:09:45.613Z,25.30
2018-02-07T21:12:17.996Z,25.20
2018-02-07T21:14:48.917Z,25.40
2018-02-07T21:17:19.490Z,25.40
2018-02-07T21:19:50.589Z,25.20
2018-02-07T21:22:22.419Z,25.10
2018-02-07T21:24:54.142Z,25.00
2018-02-07T21:27:24.997Z,25.00
2018-02-07T21:29:55.846Z,25.10
2018-02-07T21:32:27.569Z,25.10
2018-02-07T21:34:58.511Z,25.10
2018-02-07T21:37:29.194Z,25.10
2018-02-07T21:40:00.190Z,25.10
2018-02-07T21:42:32.022Z,25.00
2018-02-07T21:45:02.981Z,25.00
2018-02-07T21:47:33.810Z,25.20
2018-02-07T21:50:04.783Z,25.20
2018-02-07T21:52:35.593Z,25.20
2018-02-07T21:55:06.558Z,25.20
2018-02-07T21:57:38.213Z,25.40
2018-02-07T22:00:10.884Z,25.40
2018-02-07T22:02:42.358Z,25.40
2018-02-07T22:05:14.005Z,25.20
2018-02-07T22:07:45.746Z,25.10
2018-02-07T22:10:17.554Z,25.10
2018-02-07T22:12:48.561Z,25.00
2018-02-07T22:15:20.518Z,25.10
2018-02-07T22:17:52.202Z,25.00
2018-02-07T22:20:22.945Z,25.00
2018-02-07T22:22:53.842Z,25.00
2018-02-07T22:25:25.097Z,24.70
2018-02-07T22:27:57.174Z,24.80
2018-02-07T22:30:27.977Z,24.80
2018-02-07T22:32:59.734Z,24.80
2018-02-07T22:35:31.068Z,24.80
2018-02-07T22:38:02.362Z,24.90
2018-02-07T22:40:34.023Z,24.80
2018-02-07T22:43:05.469Z,24.80
2018-02-07T22:45:36.909Z,24.70
2018-02-07T22:48:08.506Z,24.70
2018-02-07T22:50:39.604Z,24.70
2018-02-07T22:53:11.782Z,24.70
2018-02-07T22:55:43.437Z,24.80
2018-02-07T22:58:15.063Z,24.80
2018-02-07T23:00:45.822Z,24.80
2018-02-07T23:03:17.559Z,24.90
2018-02-07T23:05:48.501Z,24.80
2018-02-07T23:08:19.434Z,24.80
2018-02-07T23:10:51.098Z,24.70
2018-02-07T23:13:22.029Z,24.70
2018-02-07T23:15:52.702Z,24.60
2018-02-07T23:18:24.470Z,24.70
2018-02-07T23:20:55.962Z,24.90
2018-02-07T23:23:27.852Z,24.80
2018-02-07T23:25:59.718Z,24.70
2018-02-07T23:28:32.626Z,24.60
2018-02-07T23:31:03.693Z,24.60
2018-02-07T23:33:34.626Z,24.50
2018-02-07T23:36:05.642Z,24.50
2018-02-07T23:38:36.429Z,24.60
2018-02-07T23:41:07.301Z,24.70
2018-02-07T23:43:38.843Z,24.60
2018-02-07T23:46:10.471Z,24.70
2018-02-07T23:48:41.815Z,24.70
2018-02-07T23:51:12.785Z,24.70
2018-02-07T23:53:44.359Z,24.70
2018-02-07T23:56:15.182Z,24.70
2018-02-07T23:58:46.853Z,24.90
